Penrose, Colorado
Current Conditions -  °F | °C
As of 5:15 PM on Thursday 27 Nov 2014 (Local Time) from K1V6 Reporting Station
Clear Clear  
Wind Chill: 63°   Ceiling: Unl
Heat Index: 63°   Visibility: 10mi
Dew Point: 18°   Wind: 18mph
Humidity: 18%   Direction: 240°WSW
Pressure: 30.16"   Gusts: 25mph
Location:  38.42°N, 105.02°W
Report Text: K1V6 280015Z AUTO 24016G22KT 10SM CLR 17/M08 A3016 RMK AO2
Loading
Personal Weather Stations






























Interactive Weather Map New forecast layout! Learn more

10-Day Weather Forecast

Advertisements
Track Severe Weather on mobile